Valor — WDD8691 — position and weather

sailwx.info

Track history (hours):
 
Tides and Currents Weather Stations Pressure Air Temp Water Temp Dewpoint Dewpoint Depression Visibility Wind Speed Wind Dir Waves Ship Positions

Valor

Owner: Crowley Marine Services, Seattle, WA. More information available from US FCC via Universal Licensing System and Coast Guard Vessel Documentation Center.

Last reported at 2017-Aug-19 04:18 UTC. Time now 2017-Aug-19 05:31 UTC.
Position N 38°04' W 122°13'.

Length 8 m; draft 5.5 m.

Type: Tug. MMSI: 367301480.

Date/timePositionNaut miles runAvg speedWind from/ knotsBaromVisibWave heightAir tempDewpointWater temp
2017-Aug-19 04:18N 38°04' W 122°13'410.4
2017-Aug-19 03:57N 38°03' W 122°18'510.2
2017-Aug-19 03:28N 38°01' W 122°23'511.1
2017-Aug-19 03:00N 37°57' W 122°27'510.5
2017-Aug-19 02:31N 37°52' W 122°25'4 8.9
2017-Aug-19 02:00N 37°48' W 122°22'3 6.9
2017-Aug-19 01:31N 37°45' W 122°21'0 0.3
2017-Aug-19 01:00N 37°45' W 122°21'1 2.7
2017-Aug-19 00:30N 37°46' W 122°21'2 4.4
2017-Aug-19 00:00N 37°48' W 122°20'0 0.1
2017-Aug-18 23:30N 37°48' W 122°20'0 0.9
2017-Aug-18 23:00N 37°49' W 122°20'0 0.7
2017-Aug-18 22:30N 37°49' W 122°20'2 5.0
2017-Aug-18 22:00N 37°48' W 122°24'0 0.6
2017-Aug-18 21:30N 37°48' W 122°24'0 0.0
2017-Aug-18 21:00N 37°48' W 122°24'0 0.0
2017-Aug-18 20:30N 37°48' W 122°24'0 0.0
2017-Aug-18 19:59N 37°48' W 122°24'0 0.0
2017-Aug-18 19:30N 37°48' W 122°24'0 0.0
2017-Aug-18 19:00N 37°48' W 122°24'0 0.0
2017-Aug-18 18:30N 37°48' W 122°24'0 0.0
2017-Aug-18 18:00N 37°48' W 122°24'0 0.0
2017-Aug-18 17:30N 37°48' W 122°24'0 0.0
2017-Aug-18 17:00N 37°48' W 122°24'2 4.2
2017-Aug-18 16:30N 37°50' W 122°24'4 7.1
2017-Aug-18 16:00N 37°54' W 122°25'3 5.3
2017-Aug-18 15:30N 37°55' W 122°22'0 0.1
2017-Aug-18 15:00N 37°55' W 122°22'3 2.8
2017-Aug-18 14:00N 37°55' W 122°25'3 6.9
2017-Aug-18 13:30N 37°52' W 122°25'3 5.9
2017-Aug-18 13:00N 37°50' W 122°28'3 5.1
2017-Aug-18 12:30N 37°48' W 122°30'0 0.7
2017-Aug-18 12:00N 37°48' W 122°29'1 3.0
2017-Aug-18 11:30N 37°49' W 122°28'3 6.7
2017-Aug-18 11:00N 37°48' W 122°24'0 0.0
2017-Aug-18 10:30N 37°48' W 122°24'0 0.0
2017-Aug-18 10:00N 37°48' W 122°24'0 0.0
2017-Aug-18 09:30N 37°48' W 122°24'0 0.1
2017-Aug-18 09:00N 37°48' W 122°24'2 4.2
2017-Aug-18 08:30N 37°50' W 122°25'510.5
2017-Aug-18 08:00N 37°55' W 122°25'510.1
2017-Aug-18 07:30N 38°00' W 122°24'5 9.2
2017-Aug-18 07:00N 38°03' W 122°19'4 8.2
2017-Aug-18 06:30N 38°04' W 122°14'5 1.8
2017-Aug-18 03:57N 38°02' W 122°08'5 7.2
2017-Aug-18 03:18N 38°04' W 122°14'2 8.5
2017-Aug-18 03:00N 38°04' W 122°17'2 3.7
2017-Aug-18 02:30N 38°03' W 122°15'0 0.1
2017-Aug-18 02:00N 38°03' W 122°15'0 0.1
2017-Aug-18 01:30N 38°03' W 122°15'1 1.5
2017-Aug-18 01:00N 38°04' W 122°14'0 0.2
2017-Aug-17 22:17N 38°04' W 122°13'1 0.3
2017-Aug-17 17:35N 38°03' W 122°15'0 0.1
2017-Aug-17 17:29N 38°03' W 122°15'3 5.3
2017-Aug-17 16:58N 38°03' W 122°18'4 8.2
2017-Aug-17 16:29N 38°01' W 122°23'4 7.3
2017-Aug-17 16:00N 38°03' W 122°19'4 7.3
2017-Aug-17 15:27N 38°04' W 122°14'6 5.1
2017-Aug-17 14:17N 38°03' W 122°06'3 1.1
2017-Aug-17 11:16N 38°03' W 122°10'2 6.9
2017-Aug-17 10:55N 38°04' W 122°13'1 0.5
2017-Aug-17 08:40N 38°03' W 122°15'0 0.0
2017-Aug-17 08:30N 38°03' W 122°15'0 0.0
2017-Aug-17 07:59N 38°03' W 122°15'0 0.0
2017-Aug-17 07:28N 38°03' W 122°15'0 0.0
2017-Aug-17 06:38N 38°03' W 122°15'0 0.0
2017-Aug-17 06:30N 38°03' W 122°15'0 0.0
2017-Aug-17 06:00N 38°03' W 122°15'0 0.0
2017-Aug-17 05:09N 38°03' W 122°15'0 0.0
2017-Aug-17 03:24N 38°03' W 122°15'0 0.0
2017-Aug-17 02:47N 38°03' W 122°15'3 6.9
2017-Aug-17 02:23N 38°03' W 122°18'510.0
2017-Aug-17 01:50N 38°00' W 122°24'410.4
2017-Aug-17 01:29N 37°57' W 122°26'510.2
2017-Aug-17 01:00N 37°52' W 122°24'4 8.0
2017-Aug-17 00:31N 37°49' W 122°21'1 2.7
2017-Aug-17 00:00N 37°49' W 122°20'0 0.1
2017-Aug-16 23:30N 37°49' W 122°20'1 2.5
2017-Aug-16 23:00N 37°48' W 122°19'1 1.8
2017-Aug-16 22:30N 37°48' W 122°18'0 0.5
2017-Aug-16 22:01N 37°48' W 122°18'1 2.5
2017-Aug-16 21:31N 37°48' W 122°19'3 5.8
2017-Aug-16 21:00N 37°48' W 122°23'1 1.4
2017-Aug-16 20:30N 37°48' W 122°24'0 0.0
2017-Aug-16 20:00N 37°48' W 122°24'0 0.0
2017-Aug-16 19:30N 37°48' W 122°24'0 0.0
2017-Aug-16 19:00N 37°48' W 122°24'0 0.0
2017-Aug-16 18:30N 37°48' W 122°24'0 0.0
2017-Aug-16 18:00N 37°48' W 122°24'0 0.0
2017-Aug-16 17:30N 37°48' W 122°24'0 0.0
2017-Aug-16 17:00N 37°48' W 122°24'0 0.0
2017-Aug-16 16:30N 37°48' W 122°24'0 0.0
2017-Aug-16 16:00N 37°48' W 122°24'0 0.0
2017-Aug-16 15:30N 37°48' W 122°24'0 0.0
2017-Aug-16 15:00N 37°48' W 122°24'0 0.0
2017-Aug-16 14:30N 37°48' W 122°24'0 0.0
2017-Aug-16 14:00N 37°48' W 122°24'0 0.8
2017-Aug-16 13:30N 37°49' W 122°24'1 2.2
2017-Aug-16 13:00N 37°49' W 122°25'1 2.4
2017-Aug-16 12:30N 37°48' W 122°24'0 0.4
2017-Aug-16 12:00N 37°48' W 122°24'0 0.0
2017-Aug-16 11:30N 37°48' W 122°24'0 0.0
2017-Aug-16 11:00N 37°48' W 122°24'0 0.0
2017-Aug-16 10:30N 37°48' W 122°24'0 0.0
2017-Aug-16 10:00N 37°48' W 122°24'0 0.0
2017-Aug-16 09:30N 37°48' W 122°24'1 2.5
2017-Aug-16 09:00N 37°47' W 122°23'2 4.4
2017-Aug-16 08:30N 37°46' W 122°20'0 0.0
2017-Aug-16 08:00N 37°46' W 122°20'0 0.3
2017-Aug-16 07:30N 37°46' W 122°20'0 0.0
2017-Aug-16 07:01N 37°46' W 122°20'0 0.1
2017-Aug-16 06:31N 37°46' W 122°20'2 4.6
2017-Aug-16 06:00N 37°49' W 122°20'0 0.1
2017-Aug-16 05:30N 37°49' W 122°20'0 0.0
2017-Aug-16 05:00N 37°49' W 122°20'0 0.2
2017-Aug-16 04:30N 37°49' W 122°20'0 0.2
2017-Aug-16 04:01N 37°49' W 122°20'0 0.0
2017-Aug-16 03:31N 37°49' W 122°20'0 0.0
2017-Aug-16 03:00N 37°49' W 122°20'1 2.1
2017-Aug-16 02:30N 37°48' W 122°21'2 3.8
2017-Aug-16 02:00N 37°46' W 122°20'3 5.8
2017-Aug-16 01:30N 37°48' W 122°23'5 9.8
2017-Aug-16 01:00N 37°53' W 122°25'6 9.3
2017-Aug-16 00:23N 37°58' W 122°26'4 9.2
2017-Aug-16 00:00N 38°01' W 122°23'4 8.8
2017-Aug-15 23:30N 38°03' W 122°19'4 1.7
2017-Aug-15 20:51N 38°04' W 122°13'9 8.0
2017-Aug-15 19:41N 38°00' W 122°24'4 8.4
2017-Aug-15 19:14N 37°57' W 122°26'2 8.7
2017-Aug-15 19:00N 37°55' W 122°25'4 9.1
2017-Aug-15 18:30N 37°50' W 122°24'2 4.7
2017-Aug-15 18:00N 37°48' W 122°24'0 0.0
2017-Aug-15 17:27N 37°48' W 122°24'0 0.0
2017-Aug-15 16:57N 37°48' W 122°24'0 0.0
2017-Aug-15 16:30N 37°48' W 122°24'0 0.0
2017-Aug-15 16:00N 37°48' W 122°24'0 0.0
2017-Aug-15 15:30N 37°48' W 122°24'0 0.0
2017-Aug-15 15:00N 37°48' W 122°24'0 0.1
2017-Aug-15 14:30N 37°48' W 122°24'0 0.1
2017-Aug-15 13:57N 37°48' W 122°24'0 0.0
2017-Aug-15 13:29N 37°48' W 122°24'0 0.0
2017-Aug-15 12:59N 37°48' W 122°24'0 0.0
2017-Aug-15 12:30N 37°48' W 122°24'0 0.0
2017-Aug-15 12:00N 37°48' W 122°24'0 0.0
2017-Aug-15 10:34N 37°48' W 122°24'0 0.0
2017-Aug-15 08:27N 37°48' W 122°24'3 6.4
2017-Aug-15 08:01N 37°46' W 122°21'1 1.1
2017-Aug-15 07:30N 37°46' W 122°21'510.2
2017-Aug-15 07:00N 37°49' W 122°26'4 7.6
2017-Aug-15 06:31N 37°48' W 122°31'1 2.9
2017-Aug-15 06:00N 37°49' W 122°29'4 7.4
2017-Aug-15 05:30N 37°50' W 122°25'3 6.8
2017-Aug-15 05:00N 37°54' W 122°26'5 9.1
2017-Aug-15 04:29N 37°58' W 122°26'5 9.5
2017-Aug-15 04:00N 38°02' W 122°22'3 0.3
2017-Aug-14 19:09N 38°00' W 122°25'2 8.2
2017-Aug-14 18:57N 37°59' W 122°25'4 7.0
2017-Aug-14 18:27N 37°55' W 122°25'3 7.3
2017-Aug-14 18:00N 37°52' W 122°24'4 7.7
2017-Aug-14 17:30N 37°48' W 122°24'0 0.1
2017-Aug-14 17:00N 37°48' W 122°24'0 0.0
2017-Aug-14 16:30N 37°48' W 122°24'0 0.0
2017-Aug-14 16:00N 37°48' W 122°24'0 0.0
2017-Aug-14 15:30N 37°48' W 122°24'0 0.0
2017-Aug-14 15:00N 37°48' W 122°24'0 0.0
2017-Aug-14 14:30N 37°48' W 122°24'0 0.0
2017-Aug-14 14:00N 37°48' W 122°24'4 8.8
2017-Aug-14 13:30N 37°48' W 122°18'1 1.2
2017-Aug-14 13:00N 37°48' W 122°18'2 3.5
2017-Aug-14 12:30N 37°48' W 122°20'2 4.0
2017-Aug-14 12:00N 37°48' W 122°22'1 2.5
2017-Aug-14 11:30N 37°48' W 122°24'0 0.0
2017-Aug-14 11:00N 37°48' W 122°24'0 0.0
2017-Aug-14 10:30N 37°48' W 122°24'0 0.0
2017-Aug-14 10:00N 37°48' W 122°24'0 0.0
2017-Aug-14 09:30N 37°48' W 122°24'0 0.0
2017-Aug-14 09:00N 37°48' W 122°24'0 0.0
2017-Aug-14 08:29N 37°48' W 122°24'2 4.8
2017-Aug-14 08:00N 37°49' W 122°27'3 6.9
2017-Aug-14 07:30N 37°49' W 122°31'1 2.7
2017-Aug-14 07:00N 37°49' W 122°29'5 9.3
2017-Aug-14 06:30N 37°49' W 122°23'4 7.2
2017-Aug-14 06:01N 37°46' W 122°20'0 0.4
2017-Aug-14 05:31N 37°46' W 122°21'1 2.5
2017-Aug-14 05:00N 37°47' W 122°22'2 3.8
2017-Aug-14 04:30N 37°48' W 122°24'0 0.0
2017-Aug-14 04:00N 37°48' W 122°24'0 0.0
2017-Aug-14 03:30N 37°48' W 122°24'0 0.0
2017-Aug-14 03:00N 37°48' W 122°24'0 0.0
2017-Aug-14 02:30N 37°48' W 122°24'0 0.0
2017-Aug-14 02:00N 37°48' W 122°24'0 0.0
2017-Aug-14 01:30N 37°48' W 122°24'0 0.0
2017-Aug-14 01:00N 37°48' W 122°24'0 0.0
2017-Aug-14 00:30N 37°48' W 122°24'3 6.3
2017-Aug-14 00:00N 37°51' W 122°24'4 7.4
2017-Aug-13 23:29N 37°55' W 122°25'1 1.5
2017-Aug-13 23:00N 37°55' W 122°25'1 1.6
2017-Aug-13 22:30N 37°56' W 122°26'3 6.6
2017-Aug-13 21:59N 37°59' W 122°25'3 6.8
2017-Aug-13 21:30N 38°02' W 122°22'6 7.5
2017-Aug-13 20:42N 38°04' W 122°15'8 1.3
2017-Aug-13 14:24N 38°00' W 122°24'4 7.5
2017-Aug-13 13:50N 37°56' W 122°26'3 8.0
2017-Aug-13 13:30N 37°54' W 122°25'4 8.5
2017-Aug-13 13:00N 37°50' W 122°22'2 4.3
2017-Aug-13 12:30N 37°49' W 122°20'0 0.0
2017-Aug-13 12:00N 37°49' W 122°20'0 0.0
2017-Aug-13 11:30N 37°49' W 122°20'0 0.0
2017-Aug-13 11:00N 37°49' W 122°20'0 0.0
2017-Aug-13 10:30N 37°49' W 122°20'0 0.1
2017-Aug-13 10:00N 37°49' W 122°20'0 0.1
2017-Aug-13 09:30N 37°49' W 122°20'0 0.1
2017-Aug-13 09:00N 37°49' W 122°20'0 0.0
2017-Aug-13 08:30N 37°49' W 122°20'0 0.0
2017-Aug-13 08:00N 37°49' W 122°20'0 0.1
2017-Aug-13 07:30N 37°49' W 122°20'0 0.1
2017-Aug-13 07:00N 37°49' W 122°20'0 0.1
2017-Aug-13 06:30N 37°49' W 122°20'0 0.0
2017-Aug-13 06:00N 37°49' W 122°20'0 0.1
2017-Aug-13 05:30N 37°49' W 122°20'0 0.1
2017-Aug-13 05:00N 37°49' W 122°20'0 0.0
2017-Aug-13 04:30N 37°49' W 122°20'3 5.0
2017-Aug-13 04:00N 37°50' W 122°23'5 9.2
2017-Aug-13 03:30N 37°54' W 122°25'1 2.5
2017-Aug-13 03:00N 37°55' W 122°25'0 0.9
2017-Aug-13 02:30N 37°55' W 122°25'1 1.8
2017-Aug-13 02:00N 37°55' W 122°26'0 0.1
2017-Aug-13 01:30N 37°55' W 122°26'0 0.0
2017-Aug-13 01:00N 37°55' W 122°26'0 0.1
2017-Aug-13 00:29N 37°55' W 122°26'0 0.1
2017-Aug-12 23:59N 37°55' W 122°26'0 0.0
2017-Aug-12 23:30N 37°55' W 122°26'0 0.0
2017-Aug-12 23:00N 37°55' W 122°26'0 0.0
2017-Aug-12 22:30N 37°55' W 122°26'0 0.3
2017-Aug-12 22:00N 37°55' W 122°26'5 5.9
2017-Aug-12 21:10N 37°60' W 122°25'2 7.8
2017-Aug-12 20:55N 38°01' W 122°23'4 8.9
2017-Aug-12 20:30N 38°03' W 122°19'4 7.2
2017-Aug-12 19:54N 38°04' W 122°14'3 1.4
2017-Aug-12 18:07N 38°03' W 122°11'2 8.2
2017-Aug-12 17:54N 38°04' W 122°13'1 3.5
2017-Aug-12 17:30N 38°03' W 122°15'0 0.1
2017-Aug-12 16:47N 38°03' W 122°15'0 0.0
2017-Aug-12 16:25N 38°03' W 122°15'0 0.0
2017-Aug-12 15:50N 38°03' W 122°15'0 0.0
2017-Aug-12 15:10N 38°03' W 122°15'0 0.0
2017-Aug-12 14:29N 38°03' W 122°15'0 0.0
2017-Aug-12 13:34N 38°03' W 122°15'0 0.0
2017-Aug-12 13:20N 38°03' W 122°15'0 0.0
2017-Aug-12 12:38N 38°03' W 122°15'0 0.3
2017-Aug-12 12:30N 38°03' W 122°15'0 0.1
2017-Aug-12 11:59N 38°03' W 122°15'0 0.1
2017-Aug-12 11:30N 38°03' W 122°15'0 0.1
2017-Aug-12 10:59N 38°03' W 122°15'0 0.0
2017-Aug-12 10:27N 38°03' W 122°15'0 0.0
2017-Aug-12 08:00N 38°03' W 122°15'0 0.0
2017-Aug-12 07:21N 38°03' W 122°15'0 0.0
2017-Aug-12 07:00N 38°03' W 122°15'0 0.0
2017-Aug-12 06:30N 38°03' W 122°15'0 0.0
2017-Aug-12 06:00N 38°03' W 122°15'0 0.0
2017-Aug-12 05:30N 38°03' W 122°15'0 0.0
2017-Aug-12 04:59N 38°03' W 122°15'0 0.0
2017-Aug-12 04:27N 38°03' W 122°15'0 0.0
2017-Aug-12 04:00N 38°03' W 122°15'0 0.0
2017-Aug-12 03:29N 38°03' W 122°15'5 9.0
2017-Aug-12 02:56N 38°02' W 122°09'4 0.5
2017-Aug-11 18:33N 38°04' W 122°13'1 0.8
2017-Aug-11 17:04N 38°03' W 122°15'0 0.0
2017-Aug-11 16:58N 38°03' W 122°15'0 0.0
2017-Aug-11 16:30N 38°03' W 122°15'5 0.3
2017-Aug-10 20:54N 38°02' W 122°08'5 7.0
2017-Aug-10 20:14N 38°04' W 122°14'4 9.5
2017-Aug-10 19:49N 38°03' W 122°19'5 9.6
2017-Aug-10 19:15N 38°01' W 122°25'410.6
2017-Aug-10 18:50N 37°56' W 122°27'310.8
2017-Aug-10 18:30N 37°53' W 122°26'5 9.7
2017-Aug-10 18:00N 37°49' W 122°23'4 8.9
2017-Aug-10 17:30N 37°45' W 122°21'1 1.9
2017-Aug-10 17:00N 37°44' W 122°20'3 5.7
2017-Aug-10 16:30N 37°46' W 122°22'5 9.1
2017-Aug-10 16:00N 37°50' W 122°24'611.1
2017-Aug-10 15:27N 37°56' W 122°26'510.8
2017-Aug-10 14:57N 38°01' W 122°23'7 5.6
2017-Aug-10 13:44N 38°03' W 122°15'0 0.0
2017-Aug-10 13:29N 38°03' W 122°15'0 0.0
2017-Aug-10 12:54N 38°03' W 122°15'0 0.0
2017-Aug-10 12:30N 38°03' W 122°15'0 0.0
2017-Aug-10 12:00N 38°03' W 122°15'0 0.0
2017-Aug-10 11:30N 38°03' W 122°15'8 1.0
2017-Aug-10 02:48N 38°01' W 122°24'4 8.5
2017-Aug-10 02:17N 37°56' W 122°27'2 8.5
2017-Aug-10 02:00N 37°54' W 122°26'3 7.0
2017-Aug-10 01:30N 37°51' W 122°26'4 8.6
2017-Aug-10 01:00N 37°48' W 122°31'1 1.3
2017-Aug-10 00:31N 37°48' W 122°30'0 0.3
2017-Aug-10 00:01N 37°48' W 122°30'2 4.2
2017-Aug-09 23:30N 37°49' W 122°28'3 6.4
2017-Aug-09 22:58N 37°48' W 122°24'0 0.0
2017-Aug-09 22:29N 37°48' W 122°24'0 0.0
2017-Aug-09 21:47N 37°48' W 122°24'0 0.0
2017-Aug-09 21:30N 37°48' W 122°24'0 0.0
2017-Aug-09 20:58N 37°48' W 122°24'0 0.0
2017-Aug-09 20:30N 37°48' W 122°24'0 0.0
2017-Aug-09 20:00N 37°48' W 122°24'0 0.0
2017-Aug-09 19:30N 37°48' W 122°24'0 0.0
2017-Aug-09 19:00N 37°48' W 122°24'0 0.0
2017-Aug-09 18:30N 37°48' W 122°24'1 2.6
2017-Aug-09 18:00N 37°49' W 122°24'5 9.1
2017-Aug-09 17:30N 37°54' W 122°25'1 2.8
2017-Aug-09 17:00N 37°55' W 122°25'0 0.4
2017-Aug-09 16:30N 37°55' W 122°25'0 0.1
2017-Aug-09 16:00N 37°55' W 122°25'0 0.7
2017-Aug-09 15:30N 37°55' W 122°25'4 7.5
2017-Aug-09 15:00N 37°59' W 122°25'5 9.3
2017-Aug-09 14:26N 38°03' W 122°20'5 3.8
2017-Aug-09 13:14N 38°04' W 122°14'0 0.0
2017-Aug-09 13:00N 38°04' W 122°14'1 1.6
2017-Aug-09 12:17N 38°04' W 122°13'4 1.2
2017-Aug-09 08:51N 38°03' W 122°18'4 9.1
2017-Aug-09 08:26N 38°01' W 122°22'5 9.5
2017-Aug-09 07:57N 37°58' W 122°26'510.4
2017-Aug-09 07:30N 37°53' W 122°25'5 9.2
2017-Aug-09 07:01N 37°49' W 122°22'1 2.8
2017-Aug-09 06:31N 37°49' W 122°20'0 0.0
2017-Aug-09 06:01N 37°49' W 122°20'0 0.0
2017-Aug-09 05:31N 37°49' W 122°20'0 0.0
2017-Aug-09 05:01N 37°49' W 122°20'0 0.0
2017-Aug-09 04:31N 37°49' W 122°20'  
Track history (hours):
 
Tides and Currents Weather Stations Pressure Air Temp Water Temp Dewpoint Dewpoint Depression Visibility Wind Speed Wind Dir Waves Ship Positions

Valor

Owner: Crowley Marine Services, Seattle, WA. More information available from US FCC via Universal Licensing System and Coast Guard Vessel Documentation Center.

Last reported at 2017-Aug-19 04:18 UTC. Time now 2017-Aug-19 05:31 UTC.
Position N 38°04' W 122°13'.

Length 8 m; draft 5.5 m.

Type: Tug. MMSI: 367301480.

Date/timePositionNaut miles runAvg speedWind from/ knotsBaromVisibWave heightAir tempDewpointWater temp
2017-Aug-19 04:18N 38°04' W 122°13'410.4
2017-Aug-19 03:57N 38°03' W 122°18'510.2
2017-Aug-19 03:28N 38°01' W 122°23'511.1
2017-Aug-19 03:00N 37°57' W 122°27'510.5
2017-Aug-19 02:31N 37°52' W 122°25'4 8.9
2017-Aug-19 02:00N 37°48' W 122°22'3 6.9
2017-Aug-19 01:31N 37°45' W 122°21'0 0.3
2017-Aug-19 01:00N 37°45' W 122°21'1 2.7
2017-Aug-19 00:30N 37°46' W 122°21'2 4.4
2017-Aug-19 00:00N 37°48' W 122°20'0 0.1
2017-Aug-18 23:30N 37°48' W 122°20'0 0.9
2017-Aug-18 23:00N 37°49' W 122°20'0 0.7
2017-Aug-18 22:30N 37°49' W 122°20'2 5.0
2017-Aug-18 22:00N 37°48' W 122°24'0 0.6
2017-Aug-18 21:30N 37°48' W 122°24'0 0.0
2017-Aug-18 21:00N 37°48' W 122°24'0 0.0
2017-Aug-18 20:30N 37°48' W 122°24'0 0.0
2017-Aug-18 19:59N 37°48' W 122°24'0 0.0
2017-Aug-18 19:30N 37°48' W 122°24'0 0.0
2017-Aug-18 19:00N 37°48' W 122°24'0 0.0
2017-Aug-18 18:30N 37°48' W 122°24'0 0.0
2017-Aug-18 18:00N 37°48' W 122°24'0 0.0
2017-Aug-18 17:30N 37°48' W 122°24'0 0.0
2017-Aug-18 17:00N 37°48' W 122°24'2 4.2
2017-Aug-18 16:30N 37°50' W 122°24'4 7.1
2017-Aug-18 16:00N 37°54' W 122°25'3 5.3
2017-Aug-18 15:30N 37°55' W 122°22'0 0.1
2017-Aug-18 15:00N 37°55' W 122°22'3 2.8
2017-Aug-18 14:00N 37°55' W 122°25'3 6.9
2017-Aug-18 13:30N 37°52' W 122°25'3 5.9
2017-Aug-18 13:00N 37°50' W 122°28'3 5.1
2017-Aug-18 12:30N 37°48' W 122°30'0 0.7
2017-Aug-18 12:00N 37°48' W 122°29'1 3.0
2017-Aug-18 11:30N 37°49' W 122°28'3 6.7
2017-Aug-18 11:00N 37°48' W 122°24'0 0.0
2017-Aug-18 10:30N 37°48' W 122°24'0 0.0
2017-Aug-18 10:00N 37°48' W 122°24'0 0.0
2017-Aug-18 09:30N 37°48' W 122°24'0 0.1
2017-Aug-18 09:00N 37°48' W 122°24'2 4.2
2017-Aug-18 08:30N 37°50' W 122°25'510.5
2017-Aug-18 08:00N 37°55' W 122°25'510.1
2017-Aug-18 07:30N 38°00' W 122°24'5 9.2
2017-Aug-18 07:00N 38°03' W 122°19'4 8.2
2017-Aug-18 06:30N 38°04' W 122°14'5 1.8
2017-Aug-18 03:57N 38°02' W 122°08'5 7.2
2017-Aug-18 03:18N 38°04' W 122°14'2 8.5
2017-Aug-18 03:00N 38°04' W 122°17'2 3.7
2017-Aug-18 02:30N 38°03' W 122°15'0 0.1
2017-Aug-18 02:00N 38°03' W 122°15'0 0.1
2017-Aug-18 01:30N 38°03' W 122°15'1 1.5
2017-Aug-18 01:00N 38°04' W 122°14'0 0.2
2017-Aug-17 22:17N 38°04' W 122°13'1 0.3
2017-Aug-17 17:35N 38°03' W 122°15'0 0.1
2017-Aug-17 17:29N 38°03' W 122°15'3 5.3
2017-Aug-17 16:58N 38°03' W 122°18'4 8.2
2017-Aug-17 16:29N 38°01' W 122°23'4 7.3
2017-Aug-17 16:00N 38°03' W 122°19'4 7.3
2017-Aug-17 15:27N 38°04' W 122°14'6 5.1
2017-Aug-17 14:17N 38°03' W 122°06'3 1.1
2017-Aug-17 11:16N 38°03' W 122°10'2 6.9
2017-Aug-17 10:55N 38°04' W 122°13'1 0.5
2017-Aug-17 08:40N 38°03' W 122°15'0 0.0
2017-Aug-17 08:30N 38°03' W 122°15'0 0.0
2017-Aug-17 07:59N 38°03' W 122°15'0 0.0
2017-Aug-17 07:28N 38°03' W 122°15'0 0.0
2017-Aug-17 06:38N 38°03' W 122°15'0 0.0
2017-Aug-17 06:30N 38°03' W 122°15'0 0.0
2017-Aug-17 06:00N 38°03' W 122°15'0 0.0
2017-Aug-17 05:09N 38°03' W 122°15'0 0.0
2017-Aug-17 03:24N 38°03' W 122°15'0 0.0
2017-Aug-17 02:47N 38°03' W 122°15'3 6.9
2017-Aug-17 02:23N 38°03' W 122°18'510.0
2017-Aug-17 01:50N 38°00' W 122°24'410.4
2017-Aug-17 01:29N 37°57' W 122°26'510.2
2017-Aug-17 01:00N 37°52' W 122°24'4 8.0
2017-Aug-17 00:31N 37°49' W 122°21'1 2.7
2017-Aug-17 00:00N 37°49' W 122°20'0 0.1
2017-Aug-16 23:30N 37°49' W 122°20'1 2.5
2017-Aug-16 23:00N 37°48' W 122°19'1 1.8
2017-Aug-16 22:30N 37°48' W 122°18'0 0.5
2017-Aug-16 22:01N 37°48' W 122°18'1 2.5
2017-Aug-16 21:31N 37°48' W 122°19'3 5.8
2017-Aug-16 21:00N 37°48' W 122°23'1 1.4
2017-Aug-16 20:30N 37°48' W 122°24'0 0.0
2017-Aug-16 20:00N 37°48' W 122°24'0 0.0
2017-Aug-16 19:30N 37°48' W 122°24'0 0.0
2017-Aug-16 19:00N 37°48' W 122°24'0 0.0
2017-Aug-16 18:30N 37°48' W 122°24'0 0.0
2017-Aug-16 18:00N 37°48' W 122°24'0 0.0
2017-Aug-16 17:30N 37°48' W 122°24'0 0.0
2017-Aug-16 17:00N 37°48' W 122°24'0 0.0
2017-Aug-16 16:30N 37°48' W 122°24'0 0.0
2017-Aug-16 16:00N 37°48' W 122°24'0 0.0
2017-Aug-16 15:30N 37°48' W 122°24'0 0.0
2017-Aug-16 15:00N 37°48' W 122°24'0 0.0
2017-Aug-16 14:30N 37°48' W 122°24'0 0.0
2017-Aug-16 14:00N 37°48' W 122°24'0 0.8
2017-Aug-16 13:30N 37°49' W 122°24'1 2.2
2017-Aug-16 13:00N 37°49' W 122°25'1 2.4
2017-Aug-16 12:30N 37°48' W 122°24'0 0.4
2017-Aug-16 12:00N 37°48' W 122°24'0 0.0
2017-Aug-16 11:30N 37°48' W 122°24'0 0.0
2017-Aug-16 11:00N 37°48' W 122°24'0 0.0
2017-Aug-16 10:30N 37°48' W 122°24'0 0.0
2017-Aug-16 10:00N 37°48' W 122°24'0 0.0
2017-Aug-16 09:30N 37°48' W 122°24'1 2.5
2017-Aug-16 09:00N 37°47' W 122°23'2 4.4
2017-Aug-16 08:30N 37°46' W 122°20'0 0.0
2017-Aug-16 08:00N 37°46' W 122°20'0 0.3
2017-Aug-16 07:30N 37°46' W 122°20'0 0.0
2017-Aug-16 07:01N 37°46' W 122°20'0 0.1
2017-Aug-16 06:31N 37°46' W 122°20'2 4.6
2017-Aug-16 06:00N 37°49' W 122°20'0 0.1
2017-Aug-16 05:30N 37°49' W 122°20'0 0.0
2017-Aug-16 05:00N 37°49' W 122°20'0 0.2
2017-Aug-16 04:30N 37°49' W 122°20'0 0.2
2017-Aug-16 04:01N 37°49' W 122°20'0 0.0
2017-Aug-16 03:31N 37°49' W 122°20'0 0.0
2017-Aug-16 03:00N 37°49' W 122°20'1 2.1
2017-Aug-16 02:30N 37°48' W 122°21'2 3.8
2017-Aug-16 02:00N 37°46' W 122°20'3 5.8
2017-Aug-16 01:30N 37°48' W 122°23'5 9.8
2017-Aug-16 01:00N 37°53' W 122°25'6 9.3
2017-Aug-16 00:23N 37°58' W 122°26'4 9.2
2017-Aug-16 00:00N 38°01' W 122°23'4 8.8
2017-Aug-15 23:30N 38°03' W 122°19'4 1.7
2017-Aug-15 20:51N 38°04' W 122°13'9 8.0
2017-Aug-15 19:41N 38°00' W 122°24'4 8.4
2017-Aug-15 19:14N 37°57' W 122°26'2 8.7
2017-Aug-15 19:00N 37°55' W 122°25'4 9.1
2017-Aug-15 18:30N 37°50' W 122°24'2 4.7
2017-Aug-15 18:00N 37°48' W 122°24'0 0.0
2017-Aug-15 17:27N 37°48' W 122°24'0 0.0
2017-Aug-15 16:57N 37°48' W 122°24'0 0.0
2017-Aug-15 16:30N 37°48' W 122°24'0 0.0
2017-Aug-15 16:00N 37°48' W 122°24'0 0.0
2017-Aug-15 15:30N 37°48' W 122°24'0 0.0
2017-Aug-15 15:00N 37°48' W 122°24'0 0.1
2017-Aug-15 14:30N 37°48' W 122°24'0 0.1
2017-Aug-15 13:57N 37°48' W 122°24'0 0.0
2017-Aug-15 13:29N 37°48' W 122°24'0 0.0
2017-Aug-15 12:59N 37°48' W 122°24'0 0.0
2017-Aug-15 12:30N 37°48' W 122°24'0 0.0
2017-Aug-15 12:00N 37°48' W 122°24'0 0.0
2017-Aug-15 10:34N 37°48' W 122°24'0 0.0
2017-Aug-15 08:27N 37°48' W 122°24'3 6.4
2017-Aug-15 08:01N 37°46' W 122°21'1 1.1
2017-Aug-15 07:30N 37°46' W 122°21'510.2
2017-Aug-15 07:00N 37°49' W 122°26'4 7.6
2017-Aug-15 06:31N 37°48' W 122°31'1 2.9
2017-Aug-15 06:00N 37°49' W 122°29'4 7.4
2017-Aug-15 05:30N 37°50' W 122°25'3 6.8
2017-Aug-15 05:00N 37°54' W 122°26'5 9.1
2017-Aug-15 04:29N 37°58' W 122°26'5 9.5
2017-Aug-15 04:00N 38°02' W 122°22'3 0.3
2017-Aug-14 19:09N 38°00' W 122°25'2 8.2
2017-Aug-14 18:57N 37°59' W 122°25'4 7.0
2017-Aug-14 18:27N 37°55' W 122°25'3 7.3
2017-Aug-14 18:00N 37°52' W 122°24'4 7.7
2017-Aug-14 17:30N 37°48' W 122°24'0 0.1
2017-Aug-14 17:00N 37°48' W 122°24'0 0.0
2017-Aug-14 16:30N 37°48' W 122°24'0 0.0
2017-Aug-14 16:00N 37°48' W 122°24'0 0.0
2017-Aug-14 15:30N 37°48' W 122°24'0 0.0
2017-Aug-14 15:00N 37°48' W 122°24'0 0.0
2017-Aug-14 14:30N 37°48' W 122°24'0 0.0
2017-Aug-14 14:00N 37°48' W 122°24'4 8.8
2017-Aug-14 13:30N 37°48' W 122°18'1 1.2
2017-Aug-14 13:00N 37°48' W 122°18'2 3.5
2017-Aug-14 12:30N 37°48' W 122°20'2 4.0
2017-Aug-14 12:00N 37°48' W 122°22'1 2.5
2017-Aug-14 11:30N 37°48' W 122°24'0 0.0
2017-Aug-14 11:00N 37°48' W 122°24'0 0.0
2017-Aug-14 10:30N 37°48' W 122°24'0 0.0
2017-Aug-14 10:00N 37°48' W 122°24'0 0.0
2017-Aug-14 09:30N 37°48' W 122°24'0 0.0
2017-Aug-14 09:00N 37°48' W 122°24'0 0.0
2017-Aug-14 08:29N 37°48' W 122°24'2 4.8
2017-Aug-14 08:00N 37°49' W 122°27'3 6.9
2017-Aug-14 07:30N 37°49' W 122°31'1 2.7
2017-Aug-14 07:00N 37°49' W 122°29'5 9.3
2017-Aug-14 06:30N 37°49' W 122°23'4 7.2
2017-Aug-14 06:01N 37°46' W 122°20'0 0.4
2017-Aug-14 05:31N 37°46' W 122°21'1 2.5
2017-Aug-14 05:00N 37°47' W 122°22'2 3.8
2017-Aug-14 04:30N 37°48' W 122°24'0 0.0
2017-Aug-14 04:00N 37°48' W 122°24'0 0.0
2017-Aug-14 03:30N 37°48' W 122°24'0 0.0
2017-Aug-14 03:00N 37°48' W 122°24'0 0.0
2017-Aug-14 02:30N 37°48' W 122°24'0 0.0
2017-Aug-14 02:00N 37°48' W 122°24'0 0.0
2017-Aug-14 01:30N 37°48' W 122°24'0 0.0
2017-Aug-14 01:00N 37°48' W 122°24'0 0.0
2017-Aug-14 00:30N 37°48' W 122°24'3 6.3
2017-Aug-14 00:00N 37°51' W 122°24'4 7.4
2017-Aug-13 23:29N 37°55' W 122°25'1 1.5
2017-Aug-13 23:00N 37°55' W 122°25'1 1.6
2017-Aug-13 22:30N 37°56' W 122°26'3 6.6
2017-Aug-13 21:59N 37°59' W 122°25'3 6.8
2017-Aug-13 21:30N 38°02' W 122°22'6 7.5
2017-Aug-13 20:42N 38°04' W 122°15'8 1.3
2017-Aug-13 14:24N 38°00' W 122°24'4 7.5
2017-Aug-13 13:50N 37°56' W 122°26'3 8.0
2017-Aug-13 13:30N 37°54' W 122°25'4 8.5
2017-Aug-13 13:00N 37°50' W 122°22'2 4.3
2017-Aug-13 12:30N 37°49' W 122°20'0 0.0
2017-Aug-13 12:00N 37°49' W 122°20'0 0.0
2017-Aug-13 11:30N 37°49' W 122°20'0 0.0
2017-Aug-13 11:00N 37°49' W 122°20'0 0.0
2017-Aug-13 10:30N 37°49' W 122°20'0 0.1
2017-Aug-13 10:00N 37°49' W 122°20'0 0.1
2017-Aug-13 09:30N 37°49' W 122°20'0 0.1
2017-Aug-13 09:00N 37°49' W 122°20'0 0.0
2017-Aug-13 08:30N 37°49' W 122°20'0 0.0
2017-Aug-13 08:00N 37°49' W 122°20'0 0.1
2017-Aug-13 07:30N 37°49' W 122°20'0 0.1
2017-Aug-13 07:00N 37°49' W 122°20'0 0.1
2017-Aug-13 06:30N 37°49' W 122°20'0 0.0
2017-Aug-13 06:00N 37°49' W 122°20'0 0.1
2017-Aug-13 05:30N 37°49' W 122°20'0 0.1
2017-Aug-13 05:00N 37°49' W 122°20'0 0.0
2017-Aug-13 04:30N 37°49' W 122°20'3 5.0
2017-Aug-13 04:00N 37°50' W 122°23'5 9.2
2017-Aug-13 03:30N 37°54' W 122°25'1 2.5
2017-Aug-13 03:00N 37°55' W 122°25'0 0.9
2017-Aug-13 02:30N 37°55' W 122°25'1 1.8
2017-Aug-13 02:00N 37°55' W 122°26'0 0.1
2017-Aug-13 01:30N 37°55' W 122°26'0 0.0
2017-Aug-13 01:00N 37°55' W 122°26'0 0.1
2017-Aug-13 00:29N 37°55' W 122°26'0 0.1
2017-Aug-12 23:59N 37°55' W 122°26'0 0.0
2017-Aug-12 23:30N 37°55' W 122°26'0 0.0
2017-Aug-12 23:00N 37°55' W 122°26'0 0.0
2017-Aug-12 22:30N 37°55' W 122°26'0 0.3
2017-Aug-12 22:00N 37°55' W 122°26'5 5.9
2017-Aug-12 21:10N 37°60' W 122°25'2 7.8
2017-Aug-12 20:55N 38°01' W 122°23'4 8.9
2017-Aug-12 20:30N 38°03' W 122°19'4 7.2
2017-Aug-12 19:54N 38°04' W 122°14'3 1.4
2017-Aug-12 18:07N 38°03' W 122°11'2 8.2
2017-Aug-12 17:54N 38°04' W 122°13'1 3.5
2017-Aug-12 17:30N 38°03' W 122°15'0 0.1
2017-Aug-12 16:47N 38°03' W 122°15'0 0.0
2017-Aug-12 16:25N 38°03' W 122°15'0 0.0
2017-Aug-12 15:50N 38°03' W 122°15'0 0.0
2017-Aug-12 15:10N 38°03' W 122°15'0 0.0
2017-Aug-12 14:29N 38°03' W 122°15'0 0.0
2017-Aug-12 13:34N 38°03' W 122°15'0 0.0
2017-Aug-12 13:20N 38°03' W 122°15'0 0.0
2017-Aug-12 12:38N 38°03' W 122°15'0 0.3
2017-Aug-12 12:30N 38°03' W 122°15'0 0.1
2017-Aug-12 11:59N 38°03' W 122°15'0 0.1
2017-Aug-12 11:30N 38°03' W 122°15'0 0.1
2017-Aug-12 10:59N 38°03' W 122°15'0 0.0
2017-Aug-12 10:27N 38°03' W 122°15'0 0.0
2017-Aug-12 08:00N 38°03' W 122°15'0 0.0
2017-Aug-12 07:21N 38°03' W 122°15'0 0.0
2017-Aug-12 07:00N 38°03' W 122°15'0 0.0
2017-Aug-12 06:30N 38°03' W 122°15'0 0.0
2017-Aug-12 06:00N 38°03' W 122°15'0 0.0
2017-Aug-12 05:30N 38°03' W 122°15'0 0.0
2017-Aug-12 04:59N 38°03' W 122°15'0 0.0
2017-Aug-12 04:27N 38°03' W 122°15'0 0.0
2017-Aug-12 04:00N 38°03' W 122°15'0 0.0
2017-Aug-12 03:29N 38°03' W 122°15'5 9.0
2017-Aug-12 02:56N 38°02' W 122°09'4 0.5
2017-Aug-11 18:33N 38°04' W 122°13'1 0.8
2017-Aug-11 17:04N 38°03' W 122°15'0 0.0
2017-Aug-11 16:58N 38°03' W 122°15'0 0.0
2017-Aug-11 16:30N 38°03' W 122°15'5 0.3
2017-Aug-10 20:54N 38°02' W 122°08'5 7.0
2017-Aug-10 20:14N 38°04' W 122°14'4 9.5
2017-Aug-10 19:49N 38°03' W 122°19'5 9.6
2017-Aug-10 19:15N 38°01' W 122°25'410.6
2017-Aug-10 18:50N 37°56' W 122°27'310.8
2017-Aug-10 18:30N 37°53' W 122°26'5 9.7
2017-Aug-10 18:00N 37°49' W 122°23'4 8.9
2017-Aug-10 17:30N 37°45' W 122°21'1 1.9
2017-Aug-10 17:00N 37°44' W 122°20'3 5.7
2017-Aug-10 16:30N 37°46' W 122°22'5 9.1
2017-Aug-10 16:00N 37°50' W 122°24'611.1
2017-Aug-10 15:27N 37°56' W 122°26'510.8
2017-Aug-10 14:57N 38°01' W 122°23'7 5.6
2017-Aug-10 13:44N 38°03' W 122°15'0 0.0
2017-Aug-10 13:29N 38°03' W 122°15'0 0.0
2017-Aug-10 12:54N 38°03' W 122°15'0 0.0
2017-Aug-10 12:30N 38°03' W 122°15'0 0.0
2017-Aug-10 12:00N 38°03' W 122°15'0 0.0
2017-Aug-10 11:30N 38°03' W 122°15'8 1.0
2017-Aug-10 02:48N 38°01' W 122°24'4 8.5
2017-Aug-10 02:17N 37°56' W 122°27'2 8.5
2017-Aug-10 02:00N 37°54' W 122°26'3 7.0
2017-Aug-10 01:30N 37°51' W 122°26'4 8.6
2017-Aug-10 01:00N 37°48' W 122°31'1 1.3
2017-Aug-10 00:31N 37°48' W 122°30'0 0.3
2017-Aug-10 00:01N 37°48' W 122°30'2 4.2
2017-Aug-09 23:30N 37°49' W 122°28'3 6.4
2017-Aug-09 22:58N 37°48' W 122°24'0 0.0
2017-Aug-09 22:29N 37°48' W 122°24'0 0.0
2017-Aug-09 21:47N 37°48' W 122°24'0 0.0
2017-Aug-09 21:30N 37°48' W 122°24'0 0.0
2017-Aug-09 20:58N 37°48' W 122°24'0 0.0
2017-Aug-09 20:30N 37°48' W 122°24'0 0.0
2017-Aug-09 20:00N 37°48' W 122°24'0 0.0
2017-Aug-09 19:30N 37°48' W 122°24'0 0.0
2017-Aug-09 19:00N 37°48' W 122°24'0 0.0
2017-Aug-09 18:30N 37°48' W 122°24'1 2.6
2017-Aug-09 18:00N 37°49' W 122°24'5 9.1
2017-Aug-09 17:30N 37°54' W 122°25'1 2.8
2017-Aug-09 17:00N 37°55' W 122°25'0 0.4
2017-Aug-09 16:30N 37°55' W 122°25'0 0.1
2017-Aug-09 16:00N 37°55' W 122°25'0 0.7
2017-Aug-09 15:30N 37°55' W 122°25'4 7.5
2017-Aug-09 15:00N 37°59' W 122°25'5 9.3
2017-Aug-09 14:26N 38°03' W 122°20'5 3.8
2017-Aug-09 13:14N 38°04' W 122°14'0 0.0
2017-Aug-09 13:00N 38°04' W 122°14'1 1.6
2017-Aug-09 12:17N 38°04' W 122°13'4 1.2
2017-Aug-09 08:51N 38°03' W 122°18'4 9.1
2017-Aug-09 08:26N 38°01' W 122°22'5 9.5
2017-Aug-09 07:57N 37°58' W 122°26'510.4
2017-Aug-09 07:30N 37°53' W 122°25'5 9.2
2017-Aug-09 07:01N 37°49' W 122°22'1 2.8
2017-Aug-09 06:31N 37°49' W 122°20'0 0.0
2017-Aug-09 06:01N 37°49' W 122°20'0 0.0
2017-Aug-09 05:31N 37°49' W 122°20'0 0.0
2017-Aug-09 05:01N 37°49' W 122°20'0 0.0
2017-Aug-09 04:31N 37°49' W 122°20'  

Dump ship's entire track history